^^
Station Historical Data
Daily Summary for May 5, 2017 Units:  English    Metric   Both
« Previous Day
Next Day »
Daily Weekly Monthly Yearly Custom
  High: Low: Average:
Temperature: 58.5 °F 46.8 °F 52.4 °F
Dew Point: 57.9 °F 42.2 °F 50.7 °F
Humidity: 98% 77% 94%
Wind Speed: 3.0mph 0.0mph 1.3mph
Wind Gust: 16.0mph - -
Wind- - SSW
Pressure: 30.14 in 29.54 in -
Precipitation: 0.32 in    
Historical Graphs
 
 
Tabular Data for May 5, 2017
Time Temperature Dew Point Pressure Wind Wind Speed Wind Gust Humidity Rainfall Rate (Hourly) Conditions
00:00 49.1 °F 42.2 °F 30.14 in NNE 1.0 mph 4.0 mph 77% 0.00 in CLR
00:15 49.1 °F 42.5 °F 30.14 in Calm   2.0 mph 78% 0.00 in CLR
00:30 49.0 °F 42.4 °F 30.12 in NNW 1.0 mph 5.0 mph 78% 0.00 in CLR
00:45 49.1 °F 42.5 °F 30.12 in Calm   4.0 mph 78% 0.00 in CLR
01:00 49.1 °F 42.5 °F 30.12 in NW 1.0 mph 4.0 mph 78% 0.00 in CLR
02:15 49.0 °F 42.8 °F 30.09 in North 1.0 mph 4.0 mph 79% 0.00 in CLR
02:30 48.9 °F 42.7 °F 30.07 in NNW 1.0 mph 9.0 mph 79% 0.00 in CLR
02:45 48.5 °F 43.3 °F 30.05 in NNW 1.0 mph 8.0 mph 82% 0.00 in CLR
03:00 47.9 °F 43.9 °F 30.06 in Calm   7.0 mph 86% 0.00 in CLR
03:15 47.5 °F 44.1 °F 30.06 in Calm   4.0 mph 88% 0.01 in -RA
03:30 47.3 °F 44.5 °F 30.05 in Calm   5.0 mph 90% 0.01 in -RA
03:45 47.1 °F 44.6 °F 30.04 in Calm   5.0 mph 91% 0.00 in -RA
04:00 46.9 °F 44.7 °F 30.05 in NW 1.0 mph 4.0 mph 92% 0.00 in -RA
04:15 46.9 °F 44.7 °F 30.03 in NNW 1.0 mph 6.0 mph 92% 0.00 in -RA
04:30 46.8 °F 44.9 °F 30.01 in Calm   7.0 mph 93% 0.01 in -RA
04:45 46.8 °F 44.9 °F 29.99 in Calm   8.0 mph 93% 0.00 in -RA
05:00 47.0 °F 45.3 °F 30.00 in NNW 1.0 mph 10.0 mph 94% 0.00 in -RA
05:15 47.2 °F 45.6 °F 30.01 in NNW 2.0 mph 7.0 mph 94% 0.00 in -RA
05:30 47.3 °F 45.7 °F 30.01 in NNW 1.0 mph 6.0 mph 94% 0.00 in -RA
05:45 47.4 °F 45.8 °F 30.00 in NNW 3.0 mph 9.0 mph 94% 0.00 in -RA
06:00 47.5 °F 45.9 °F 29.98 in NE 1.0 mph 8.0 mph 94% 0.00 in -RA
06:15 47.6 °F 46.0 °F 29.97 in North 2.0 mph 12.0 mph 94% 0.00 in OVC
06:30 47.7 °F 46.1 °F 29.96 in East 2.0 mph 15.0 mph 94% 0.00 in OVC
06:45 47.8 °F 46.2 °F 29.96 in North 2.0 mph 8.0 mph 94% 0.00 in OVC
07:00 48.0 °F 46.4 °F 29.95 in ENE 1.0 mph 7.0 mph 94% 0.00 in OVC
07:15 48.3 °F 46.6 °F 29.94 in NNE 2.0 mph 13.0 mph 94% 0.00 in OVC
07:30 48.3 °F 46.7 °F 29.94 in NE 2.0 mph 10.0 mph 94% 0.00 in OVC
07:45 48.4 °F 46.8 °F 29.93 in NNW 2.0 mph 10.0 mph 94% 0.00 in OVC
08:00 48.5 °F 46.9 °F 29.92 in East 3.0 mph 12.0 mph 94% 0.01 in OVC
08:15 48.6 °F 47.0 °F 29.91 in NNW 1.0 mph 12.0 mph 94% 0.00 in -RA
08:30 48.6 °F 47.2 °F 29.91 in North 3.0 mph 16.0 mph 95% 0.01 in -RA
08:45 48.8 °F 47.4 °F 29.90 in WNW 1.0 mph 10.0 mph 95% 0.00 in -RA
09:00 49.0 °F 47.6 °F 29.89 in North 2.0 mph 10.0 mph 95% 0.00 in -RA
09:15 49.2 °F 47.8 °F 29.88 in NE 2.0 mph 12.0 mph 95% 0.00 in OVC
09:30 49.5 °F 48.1 °F 29.87 in North 3.0 mph 8.0 mph 95% 0.00 in OVC
09:45 49.9 °F 48.6 °F 29.84 in West 2.0 mph 12.0 mph 95% 0.00 in OVC
10:00 50.4 °F 49.0 °F 29.83 in North 3.0 mph 14.0 mph 95% 0.00 in OVC
10:15 50.8 °F 49.4 °F 29.82 in North 1.0 mph 12.0 mph 95% 0.01 in -RA
10:30 50.8 °F 49.4 °F 29.82 in NE 3.0 mph 12.0 mph 95% 0.00 in -RA
10:45 50.8 °F 49.4 °F 29.81 in North 2.0 mph 10.0 mph 95% 0.01 in -RA
11:00 50.9 °F 49.5 °F 29.80 in NNW 3.0 mph 8.0 mph 95% 0.00 in -RA
11:15 50.9 °F 49.5 °F 29.79 in ENE 2.0 mph 12.0 mph 95% 0.02 in -RA
11:30 50.8 °F 49.4 °F 29.78 in ESE 2.0 mph 12.0 mph 95% 0.05 in -RA
12:00 50.9 °F 49.5 °F 29.76 in NNW 3.0 mph 9.0 mph 95% 0.00 in -RA
12:15 50.9 °F 49.8 °F 29.72 in NE 3.0 mph 12.0 mph 96% 0.00 in +RA
12:30 51.0 °F 49.9 °F 29.70 in NE 2.0 mph 13.0 mph 96% 0.05 in +RA
12:45 51.2 °F 50.1 °F 29.68 in WSW 3.0 mph 9.0 mph 96% 0.03 in +RA
13:00 51.5 °F 50.4 °F 29.73 in SSW 2.0 mph 10.0 mph 96% 0.00 in +RA
13:15 51.5 °F 50.4 °F 29.71 in NNW 2.0 mph 6.0 mph 96% 0.01 in -RA
13:30 51.6 °F 50.5 °F 29.73 in SW 1.0 mph 5.0 mph 96% 0.00 in -RA
13:45 51.8 °F 50.7 °F 29.74 in NNE 1.0 mph 7.0 mph 96% 0.00 in -RA
14:00 52.0 °F 51.2 °F 29.73 in ENE 2.0 mph 6.0 mph 97% 0.00 in -RA
14:15 52.1 °F 51.3 °F 29.69 in NNE 1.0 mph 5.0 mph 97% 0.00 in +RA
14:30 52.4 °F 51.6 °F 29.68 in SSW 1.0 mph 8.0 mph 97% 0.00 in +RA
14:45 52.8 °F 52.0 °F 29.69 in SSE 1.0 mph 5.0 mph 97% 0.00 in +RA
15:00 53.2 °F 52.4 °F 29.61 in ESE 1.0 mph 10.0 mph 97% 0.00 in +RA
15:15 54.0 °F 53.2 °F 29.59 in West 1.0 mph 8.0 mph 97% 0.00 in OVC
15:30 54.9 °F 54.1 °F 29.60 in ESE 1.0 mph 5.0 mph 97% 0.00 in OVC
15:45 55.5 °F 54.6 °F 29.62 in SW 1.0 mph 6.0 mph 97% 0.00 in OVC
16:00 56.1 °F 55.3 °F 29.67 in WSW 3.0 mph 7.0 mph 97% 0.00 in OVC
16:15 56.1 °F 55.0 °F 29.64 in Calm   6.0 mph 96% 0.00 in OVC
16:30 56.8 °F 56.0 °F 29.64 in Calm   2.0 mph 97% 0.00 in OVC
16:45 56.8 °F 56.0 °F 29.64 in Calm   1.0 mph 97% 0.00 in OVC
17:00 57.0 °F 56.2 °F 29.63 in Calm   3.0 mph 97% 0.00 in OVC
17:15 56.8 °F 55.7 °F 29.63 in Calm   2.0 mph 96% 0.00 in CLR
17:30 56.7 °F 55.9 °F 29.64 in Calm   2.0 mph 97% 0.00 in CLR
17:45 56.7 °F 55.9 °F 29.61 in Calm   3.0 mph 97% 0.00 in CLR
18:00 57.0 °F 56.1 °F 29.60 in North 2.0 mph 6.0 mph 97% 0.00 in CLR
18:15 57.2 °F 56.4 °F 29.59 in NNE 1.0 mph 7.0 mph 97% 0.00 in CLR
18:30 57.3 °F 56.5 °F 29.60 in NNW 1.0 mph 6.0 mph 97% 0.00 in CLR
18:45 57.6 °F 56.8 °F 29.61 in Calm   3.0 mph 97% 0.00 in CLR
19:00 57.6 °F 56.8 °F 29.60 in Calm   4.0 mph 97% 0.00 in CLR
19:15 57.7 °F 56.9 °F 29.60 in North 2.0 mph 6.0 mph 97% 0.00 in CLR
19:30 58.0 °F 57.2 °F 29.60 in Calm   6.0 mph 97% 0.00 in CLR
19:45 58.4 °F 57.9 °F 29.60 in SW 1.0 mph 7.0 mph 98% 0.00 in CLR
20:00 58.5 °F 57.9 °F 29.59 in SW 1.0 mph 10.0 mph 98% 0.00 in CLR
20:15 58.4 °F 57.6 °F 29.58 in NNW 1.0 mph 7.0 mph 97% 0.00 in OVC
20:30 58.4 °F 57.6 °F 29.58 in NNW 1.0 mph 6.0 mph 97% 0.00 in OVC
20:45 58.3 °F 57.5 °F 29.59 in NNW 1.0 mph 4.0 mph 97% 0.00 in OVC
21:00 58.2 °F 57.4 °F 29.58 in NNE 1.0 mph 7.0 mph 97% 0.00 in OVC
21:15 58.2 °F 57.4 °F 29.57 in NW 1.0 mph 6.0 mph 97% 0.00 in OVC
21:30 58.1 °F 57.3 °F 29.58 in NNE 2.0 mph 7.0 mph 97% 0.00 in OVC
21:45 57.9 °F 57.1 °F 29.58 in Calm   6.0 mph 97% 0.00 in OVC
22:00 57.6 °F 56.8 °F 29.56 in North 3.0 mph 8.0 mph 97% 0.00 in OVC
22:15 57.5 °F 56.6 °F 29.56 in NE 2.0 mph 9.0 mph 97% 0.00 in CLR
22:30 57.3 °F 56.5 °F 29.55 in ENE 1.0 mph 6.0 mph 97% 0.00 in CLR
22:45 57.2 °F 56.4 °F 29.55 in NNW 1.0 mph 6.0 mph 97% 0.00 in CLR
23:00 57.1 °F 56.3 °F 29.55 in NE 2.0 mph 12.0 mph 97% 0.00 in CLR
23:15 57.2 °F 56.6 °F 29.55 in Calm   7.0 mph 98% 0.00 in -RA
23:30 57.3 °F 56.7 °F 29.55 in NW 1.0 mph 7.0 mph 98% 0.00 in -RA
23:45 57.2 °F 56.6 °F 29.54 in Calm   7.0 mph 98% 0.00 in -RA
TarryTown NY Weather
Compliments of Weather Underground - 1.5 mb